createdAt,value
2019-05-21T00:01:41.994Z,6.60
2019-05-21T00:04:10.546Z,4.70
2019-05-21T00:06:39.266Z,4.97
2019-05-21T00:09:07.903Z,5.53
2019-05-21T00:11:36.381Z,3.93
2019-05-21T00:14:04.969Z,5.40
2019-05-21T00:16:33.404Z,5.07
2019-05-21T00:19:01.972Z,4.03
2019-05-21T00:21:30.466Z,5.33
2019-05-21T00:23:58.891Z,3.83
2019-05-21T00:26:27.339Z,4.10
2019-05-21T00:29:32.165Z,3.77
2019-05-21T00:32:37.043Z,4.70
2019-05-21T00:35:44.666Z,5.67
2019-05-21T00:38:51.949Z,6.33
2019-05-21T00:41:55.826Z,7.63
2019-05-21T00:44:24.339Z,8.03
2019-05-21T00:46:52.835Z,7.43
2019-05-21T00:49:21.283Z,7.10
2019-05-21T00:51:49.782Z,7.30
2019-05-21T00:54:18.370Z,5.73
2019-05-21T00:56:46.828Z,7.97
2019-05-21T00:59:15.393Z,8.00
2019-05-21T01:01:44.587Z,8.20
2019-05-21T01:04:13.151Z,8.07
2019-05-21T01:06:42.639Z,12.57
2019-05-21T01:09:11.197Z,10.77
2019-05-21T01:11:39.693Z,9.30
2019-05-21T01:14:08.159Z,12.90
2019-05-21T01:16:36.663Z,10.10
2019-05-21T01:19:05.212Z,11.53
2019-05-21T01:21:33.629Z,13.00
2019-05-21T01:24:02.860Z,10.57
2019-05-21T01:26:31.349Z,11.30
2019-05-21T01:28:59.801Z,13.30
2019-05-21T01:31:28.519Z,11.93
2019-05-21T01:33:56.956Z,14.47
2019-05-21T01:36:25.375Z,12.40
2019-05-21T01:38:53.862Z,12.27
2019-05-21T01:41:22.291Z,13.37
2019-05-21T01:43:50.740Z,14.03
2019-05-21T01:48:49.444Z,12.20
2019-05-21T01:51:18.043Z,12.67
2019-05-21T01:53:46.610Z,10.93
2019-05-21T01:56:15.159Z,12.47
2019-05-21T01:58:43.658Z,11.03
2019-05-21T02:01:12.096Z,11.87
2019-05-21T02:03:40.664Z,9.83
2019-05-21T02:06:09.267Z,7.50
2019-05-21T02:08:37.840Z,7.57
2019-05-21T02:11:06.437Z,8.83
2019-05-21T02:13:34.882Z,6.43
2019-05-21T02:16:04.985Z,8.10
2019-05-21T02:18:33.561Z,9.07
2019-05-21T02:21:02.063Z,7.00
2019-05-21T02:23:30.648Z,7.70
2019-05-21T02:25:59.220Z,6.70
2019-05-21T02:28:27.680Z,6.63
2019-05-21T02:30:56.782Z,5.60
2019-05-21T02:33:25.566Z,5.77
2019-05-21T02:35:55.035Z,4.90
2019-05-21T02:38:23.844Z,6.00
2019-05-21T02:40:52.395Z,5.10
2019-05-21T02:43:20.826Z,4.97
2019-05-21T02:45:49.313Z,5.03
2019-05-21T02:48:17.730Z,3.87
2019-05-21T02:50:46.261Z,5.10
2019-05-21T02:53:14.905Z,3.63
2019-05-21T02:55:43.487Z,3.33
2019-05-21T02:58:12.004Z,3.53
2019-05-21T03:00:54.305Z,3.97
2019-05-21T03:03:24.402Z,3.33
2019-05-21T03:06:10.460Z,3.00
2019-05-21T03:08:23.038Z,3.70
2019-05-21T03:10:53.213Z,3.20
2019-05-21T03:13:21.788Z,4.47
2019-05-21T03:15:50.401Z,3.73
2019-05-21T03:18:20.113Z,3.30
2019-05-21T03:20:48.749Z,4.40
2019-05-21T03:23:17.307Z,4.00
2019-05-21T03:25:45.764Z,4.10
2019-05-21T03:28:14.208Z,4.87
2019-05-21T03:30:42.782Z,5.57
2019-05-21T03:33:11.334Z,6.73
2019-05-21T03:35:39.869Z,5.23
2019-05-21T03:38:08.374Z,6.43
2019-05-21T03:40:36.995Z,5.13
2019-05-21T03:43:05.626Z,6.43
2019-05-21T03:45:34.105Z,5.43
2019-05-21T03:48:02.677Z,7.93
2019-05-21T03:50:31.258Z,7.00
2019-05-21T03:52:59.741Z,9.10
2019-05-21T03:55:28.268Z,7.50
2019-05-21T03:57:56.757Z,7.50
2019-05-21T04:00:25.293Z,7.23
2019-05-21T04:02:53.720Z,7.40
2019-05-21T04:05:24.624Z,6.93
2019-05-21T04:07:53.308Z,6.27
2019-05-21T04:10:21.874Z,6.50
2019-05-21T04:13:06.130Z,6.87
2019-05-21T04:15:37.419Z,6.10
2019-05-21T04:18:10.428Z,6.60
2019-05-21T04:20:39.098Z,6.07
2019-05-21T04:23:09.085Z,6.77
2019-05-21T04:25:37.616Z,6.60
2019-05-21T04:28:06.171Z,7.93
2019-05-21T04:30:35.021Z,4.57
2019-05-21T04:33:03.508Z,5.73
2019-05-21T04:35:31.981Z,6.37
2019-05-21T04:38:00.518Z,7.03
2019-05-21T04:40:29.023Z,5.70
2019-05-21T04:43:01.692Z,6.30
2019-05-21T04:45:27.786Z,6.37
2019-05-21T04:47:56.318Z,6.00
2019-05-21T04:50:24.809Z,7.60
2019-05-21T04:52:55.980Z,7.57
2019-05-21T04:55:24.559Z,5.07
2019-05-21T04:57:53.093Z,5.37
2019-05-21T05:00:21.648Z,5.10
2019-05-21T05:02:50.396Z,5.77
2019-05-21T05:05:20.670Z,4.70
2019-05-21T05:07:50.437Z,5.13
2019-05-21T05:10:18.931Z,4.70
2019-05-21T05:12:47.399Z,4.83
2019-05-21T05:15:16.828Z,3.97
2019-05-21T05:17:45.332Z,3.67
2019-05-21T05:20:14.094Z,3.70
2019-05-21T05:22:42.604Z,3.50
2019-05-21T05:25:11.289Z,3.27
2019-05-21T05:27:39.797Z,2.83
2019-05-21T05:30:08.898Z,4.37
2019-05-21T05:32:37.456Z,2.37
2019-05-21T05:35:09.428Z,3.10
2019-05-21T05:37:44.215Z,2.30
2019-05-21T05:40:08.679Z,2.27
2019-05-21T05:42:37.135Z,2.17
2019-05-21T05:45:07.579Z,2.17
2019-05-21T05:47:36.184Z,1.87
2019-05-21T05:50:10.207Z,2.43
2019-05-21T05:52:38.655Z,2.73
2019-05-21T05:55:08.193Z,2.07
2019-05-21T05:57:38.158Z,2.93
2019-05-21T06:00:09.357Z,1.50
2019-05-21T06:02:37.928Z,1.87
2019-05-21T06:05:07.159Z,1.50
2019-05-21T06:07:35.732Z,2.37
2019-05-21T06:10:05.971Z,1.23
2019-05-21T06:12:34.794Z,2.50
2019-05-21T06:15:03.565Z,1.63
2019-05-21T06:17:32.295Z,1.40
2019-05-21T06:20:00.820Z,0.90
2019-05-21T06:22:31.551Z,1.30
2019-05-21T06:25:00.049Z,1.77
2019-05-21T06:27:28.544Z,1.73
2019-05-21T06:29:56.988Z,1.30
2019-05-21T06:32:25.507Z,2.90
2019-05-21T06:34:54.011Z,1.20
2019-05-21T06:37:22.592Z,1.80
2019-05-21T06:39:53.927Z,1.27
2019-05-21T06:42:22.424Z,1.33
2019-05-21T06:44:50.935Z,1.90
2019-05-21T06:47:19.523Z,1.50
2019-05-21T06:49:48.057Z,1.20
2019-05-21T06:52:16.525Z,1.30
2019-05-21T06:54:44.995Z,0.77
2019-05-21T06:57:13.594Z,1.30
2019-05-21T06:59:42.151Z,0.87
2019-05-21T07:02:13.328Z,1.00
2019-05-21T07:04:41.894Z,1.10
2019-05-21T07:07:13.417Z,1.30
2019-05-21T07:09:44.444Z,1.43
2019-05-21T07:12:15.695Z,1.67
2019-05-21T07:14:44.269Z,1.40
2019-05-21T07:17:15.435Z,1.27
2019-05-21T07:19:44.013Z,1.00
2019-05-21T07:22:14.115Z,1.10
2019-05-21T07:24:42.745Z,1.10
2019-05-21T07:27:11.382Z,0.90
2019-05-21T07:29:39.928Z,1.00
2019-05-21T07:32:08.442Z,0.70
2019-05-21T07:34:37.081Z,1.27
2019-05-21T07:37:05.733Z,1.90
2019-05-21T07:39:34.298Z,1.00
2019-05-21T07:42:02.884Z,0.80
2019-05-21T07:44:31.376Z,0.77
2019-05-21T07:46:59.804Z,2.60
2019-05-21T07:49:28.295Z,1.00
2019-05-21T07:51:56.761Z,1.43
2019-05-21T07:54:27.914Z,1.00
2019-05-21T07:56:55.476Z,1.83
2019-05-21T07:59:24.009Z,0.80
2019-05-21T08:01:52.643Z,1.00
2019-05-21T08:04:21.146Z,3.23
2019-05-21T08:06:49.769Z,1.00
2019-05-21T08:09:18.394Z,0.97
2019-05-21T08:11:47.410Z,1.20
2019-05-21T08:14:16.139Z,2.00
2019-05-21T08:16:44.642Z,1.00
2019-05-21T08:19:13.440Z,0.90
2019-05-21T08:21:42.138Z,0.90
2019-05-21T08:24:10.607Z,1.10
2019-05-21T08:26:39.171Z,1.07
2019-05-21T08:29:07.959Z,1.30
2019-05-21T08:31:38.138Z,1.00
2019-05-21T08:34:06.633Z,2.80
2019-05-21T08:36:35.164Z,0.93
2019-05-21T08:39:04.777Z,2.73
2019-05-21T08:41:33.302Z,1.17
2019-05-21T08:44:01.870Z,2.13
2019-05-21T08:46:30.547Z,2.33
2019-05-21T08:48:59.042Z,1.20
2019-05-21T08:51:27.606Z,1.23
2019-05-21T08:53:56.224Z,1.20
2019-05-21T08:56:24.921Z,1.40
2019-05-21T08:58:53.491Z,1.00
2019-05-21T09:01:22.306Z,1.30
2019-05-21T09:03:50.920Z,1.13
2019-05-21T09:06:19.508Z,1.30
2019-05-21T09:08:47.998Z,1.10
2019-05-21T09:11:16.706Z,1.70
2019-05-21T09:13:45.358Z,1.60
2019-05-21T09:16:13.846Z,1.00
2019-05-21T09:18:42.357Z,1.10
2019-05-21T09:21:10.952Z,1.00
2019-05-21T09:23:39.463Z,1.77
2019-05-21T09:26:08.057Z,1.23
2019-05-21T09:28:39.256Z,1.57
2019-05-21T09:31:07.884Z,1.37
2019-05-21T09:33:36.492Z,1.37
2019-05-21T09:36:04.984Z,1.10
2019-05-21T09:38:36.585Z,2.00
2019-05-21T09:41:08.629Z,1.20
2019-05-21T09:43:41.714Z,0.97
2019-05-21T09:46:16.541Z,1.07
2019-05-21T09:48:45.016Z,1.17
2019-05-21T09:51:43.484Z,1.10
2019-05-21T09:54:24.097Z,0.90
2019-05-21T09:56:54.491Z,1.33
2019-05-21T09:59:39.797Z,1.27
2019-05-21T10:02:10.517Z,2.00
2019-05-21T10:06:21.179Z,1.43
2019-05-21T10:07:37.657Z,1.13
2019-05-21T10:10:03.260Z,1.10
2019-05-21T10:12:31.931Z,0.90
2019-05-21T10:15:20.506Z,0.97
2019-05-21T10:17:49.428Z,1.00
2019-05-21T10:20:20.171Z,1.60
2019-05-21T10:22:51.548Z,1.93
2019-05-21T10:25:22.379Z,1.83
2019-05-21T10:27:50.883Z,1.73
2019-05-21T10:30:19.622Z,1.67
2019-05-21T10:32:57.406Z,1.40
2019-05-21T10:35:27.786Z,1.50
2019-05-21T10:38:00.274Z,1.20
2019-05-21T10:40:28.858Z,1.50
2019-05-21T10:42:57.371Z,1.50
2019-05-21T10:45:25.979Z,1.70
2019-05-21T10:47:54.689Z,1.70
2019-05-21T10:50:23.242Z,1.80
2019-05-21T10:52:51.955Z,1.40
2019-05-21T10:55:22.017Z,1.73
2019-05-21T10:57:58.269Z,1.80
2019-05-21T11:00:28.338Z,1.60
2019-05-21T11:03:01.488Z,1.50
2019-05-21T11:05:34.506Z,1.70
2019-05-21T11:08:22.759Z,1.67
2019-05-21T11:10:33.343Z,1.60
2019-05-21T11:13:01.896Z,1.60
2019-05-21T11:15:30.514Z,2.43
2019-05-21T11:18:10.657Z,2.27
2019-05-21T11:20:29.406Z,1.73
2019-05-21T11:23:00.903Z,1.70
2019-05-21T11:25:29.534Z,1.77
2019-05-21T11:27:59.477Z,2.23
2019-05-21T11:30:28.200Z,1.53
2019-05-21T11:32:56.733Z,1.93
2019-05-21T11:35:25.269Z,2.00
2019-05-21T11:37:53.867Z,2.17
2019-05-21T11:40:24.369Z,3.37
2019-05-21T11:42:53.428Z,1.97
2019-05-21T11:45:31.644Z,2.40
2019-05-21T11:47:55.025Z,1.70
2019-05-21T11:50:23.771Z,1.93
2019-05-21T11:52:54.515Z,1.83
2019-05-21T11:55:22.480Z,1.50
2019-05-21T11:57:52.551Z,1.60
2019-05-21T12:00:24.499Z,1.83
2019-05-21T12:02:53.250Z,1.50
2019-05-21T12:05:21.865Z,1.70
2019-05-21T12:07:51.670Z,3.30
2019-05-21T12:10:20.511Z,1.40
2019-05-21T12:12:49.098Z,2.03
2019-05-21T12:15:17.676Z,2.50
2019-05-21T12:17:46.196Z,1.47
2019-05-21T12:20:15.297Z,1.50
2019-05-21T12:22:43.906Z,1.40
2019-05-21T12:25:12.688Z,1.67
2019-05-21T12:27:42.821Z,2.90
2019-05-21T12:30:14.379Z,1.70
2019-05-21T12:32:42.857Z,1.70
2019-05-21T12:35:14.589Z,1.90
2019-05-21T12:37:43.183Z,1.77
2019-05-21T12:40:12.290Z,2.40
2019-05-21T12:42:40.924Z,1.80
2019-05-21T12:45:11.412Z,3.63
2019-05-21T12:47:41.409Z,2.47
2019-05-21T12:50:10.660Z,2.10
2019-05-21T12:52:41.933Z,2.43
2019-05-21T12:55:13.317Z,1.90
2019-05-21T12:57:51.984Z,2.20
2019-05-21T13:00:20.879Z,2.60
2019-05-21T13:02:49.528Z,2.17
2019-05-21T13:05:18.116Z,2.10
2019-05-21T13:07:46.790Z,2.40
2019-05-21T13:10:18.862Z,2.33
2019-05-21T13:12:50.075Z,2.37
2019-05-21T13:15:23.384Z,2.00
2019-05-21T13:19:54.934Z,1.80
2019-05-21T13:20:45.734Z,2.87
2019-05-21T13:23:15.798Z,2.47
2019-05-21T13:25:45.930Z,2.73
2019-05-21T13:28:20.285Z,2.30
2019-05-21T13:30:49.089Z,4.13
2019-05-21T13:33:19.578Z,2.50
2019-05-21T13:35:50.991Z,2.80
2019-05-21T13:38:27.442Z,2.73
2019-05-21T13:41:03.136Z,2.27
2019-05-21T13:43:34.609Z,3.00
2019-05-21T13:46:06.600Z,2.20
2019-05-21T13:48:35.285Z,2.40
2019-05-21T13:51:07.142Z,2.77
2019-05-21T13:53:35.630Z,2.63
2019-05-21T13:56:04.196Z,3.13
2019-05-21T13:58:34.628Z,2.57
2019-05-21T14:01:07.508Z,2.60
2019-05-21T14:03:35.987Z,3.37
2019-05-21T14:06:04.584Z,2.83
2019-05-21T14:08:33.363Z,3.43
2019-05-21T14:11:05.491Z,2.77
2019-05-21T14:13:35.602Z,3.43
2019-05-21T14:16:05.835Z,3.13
2019-05-21T14:18:36.030Z,3.40
2019-05-21T14:21:04.731Z,3.10
2019-05-21T14:23:33.400Z,5.20
2019-05-21T14:26:02.058Z,4.53
2019-05-21T14:28:34.284Z,2.80
2019-05-21T14:31:04.160Z,3.70
2019-05-21T14:33:35.484Z,3.27
2019-05-21T14:36:06.875Z,2.87
2019-05-21T16:35:40.037Z,3.60
2019-05-21T16:38:11.756Z,3.87
2019-05-21T16:40:42.301Z,4.07
2019-05-21T16:43:10.711Z,6.20
2019-05-21T16:45:43.147Z,4.57
2019-05-21T16:48:13.328Z,3.90
2019-05-21T16:50:41.911Z,3.87
2019-05-21T16:53:11.334Z,4.03
2019-05-21T16:55:39.799Z,4.10
2019-05-21T16:58:08.280Z,8.00
2019-05-21T17:00:36.868Z,4.67
2019-05-21T17:03:05.435Z,3.23
2019-05-21T17:05:34.177Z,4.17
2019-05-21T17:08:02.689Z,3.20
2019-05-21T17:10:31.184Z,3.30
2019-05-21T17:12:59.726Z,5.23
2019-05-21T17:15:28.287Z,3.77
2019-05-21T17:17:59.551Z,4.70
2019-05-21T17:20:28.268Z,2.90
2019-05-21T17:22:56.787Z,3.57
2019-05-21T17:25:28.112Z,3.40
2019-05-21T17:27:58.226Z,3.10
2019-05-21T17:30:27.030Z,3.90
2019-05-21T17:32:55.535Z,3.17
2019-05-21T17:35:24.144Z,6.03
2019-05-21T17:37:52.600Z,5.33
2019-05-21T17:40:23.402Z,7.63
2019-05-21T17:42:52.444Z,4.53
2019-05-21T17:45:21.059Z,4.97
2019-05-21T17:47:49.636Z,3.83
2019-05-21T17:50:18.539Z,3.80
2019-05-21T17:52:50.392Z,3.60
2019-05-21T17:55:20.859Z,3.00
2019-05-21T17:57:49.676Z,3.90
2019-05-21T18:00:21.257Z,3.13
2019-05-21T18:02:49.945Z,4.10
2019-05-21T18:05:23.079Z,2.93
2019-05-21T18:07:52.089Z,3.20
2019-05-21T18:10:20.587Z,5.37
2019-05-21T18:12:49.299Z,3.40
2019-05-21T18:15:19.060Z,3.97
2019-05-21T18:17:47.883Z,3.00
2019-05-21T18:20:18.175Z,2.73
2019-05-21T18:22:48.407Z,3.10
2019-05-21T18:25:17.026Z,2.77
2019-05-21T18:27:45.473Z,3.43
2019-05-21T18:30:14.504Z,3.97
2019-05-21T18:32:44.739Z,2.50
2019-05-21T18:35:13.534Z,3.13
2019-05-21T18:37:42.437Z,2.60
2019-05-21T18:40:11.322Z,3.77
2019-05-21T18:42:39.965Z,3.77
2019-05-21T18:45:09.894Z,3.10
2019-05-21T18:47:38.716Z,3.30
2019-05-21T18:50:10.597Z,3.33
2019-05-21T18:52:39.238Z,3.30
2019-05-21T18:55:08.130Z,3.47
2019-05-21T18:57:36.790Z,3.63
2019-05-21T19:00:08.679Z,3.30
2019-05-21T19:02:37.349Z,3.40
2019-05-21T19:05:07.168Z,3.40
2019-05-21T19:07:37.730Z,3.63
2019-05-21T19:10:10.304Z,3.20
2019-05-21T19:12:39.430Z,3.30
2019-05-21T19:15:08.971Z,4.83
2019-05-21T19:17:37.393Z,3.73
2019-05-21T19:20:07.713Z,3.50
2019-05-21T19:22:36.478Z,4.00
2019-05-21T19:25:08.260Z,5.17
2019-05-21T19:27:36.825Z,5.57
2019-05-21T19:30:08.988Z,4.43
2019-05-21T19:32:37.523Z,8.27
2019-05-21T19:35:06.783Z,4.57
2019-05-21T19:37:35.267Z,5.40
2019-05-21T19:40:05.620Z,6.97
2019-05-21T19:42:34.264Z,5.13
2019-05-21T19:45:03.455Z,5.00
2019-05-21T19:47:32.158Z,5.40
2019-05-21T19:50:00.692Z,5.87
2019-05-21T19:52:29.251Z,5.07
2019-05-21T19:54:57.741Z,6.13
2019-05-21T19:57:27.680Z,6.77
2019-05-21T19:59:56.175Z,6.40
2019-05-21T20:02:25.748Z,6.37
2019-05-21T20:04:59.277Z,5.90
2019-05-21T23:22:59.460Z,9.87
2019-05-21T23:25:30.337Z,11.20
2019-05-21T23:27:59.240Z,12.40
2019-05-21T23:30:28.123Z,9.60
2019-05-21T23:32:58.003Z,10.60
2019-05-21T23:35:27.130Z,11.77
2019-05-21T23:37:56.395Z,11.13
2019-05-21T23:40:25.782Z,9.80
2019-05-21T23:42:55.093Z,12.07
2019-05-21T23:45:23.677Z,9.90
2019-05-21T23:47:52.821Z,10.70
2019-05-21T23:50:21.471Z,13.47
2019-05-21T23:52:51.221Z,11.80
2019-05-21T23:55:21.330Z,12.77
2019-05-21T23:57:50.052Z,11.70
